sensor_id;sensor_type;location;lat;lon;timestamp;temperature;humidity
63897;DHT22;50063;52.084;5.414;2022-08-19T00:02:02;19.60;99.90
63897;DHT22;50063;52.084;5.414;2022-08-19T00:04:30;19.60;99.90
63897;DHT22;50063;52.084;5.414;2022-08-19T00:06:57;19.60;99.90
63897;DHT22;50063;52.084;5.414;2022-08-19T00:09:24;19.60;99.90
63897;DHT22;50063;52.084;5.414;2022-08-19T00:11:51;19.60;99.90
63897;DHT22;50063;52.084;5.414;2022-08-19T00:14:18;19.50;99.90
63897;DHT22;50063;52.084;5.414;2022-08-19T00:16:47;19.50;99.90
63897;DHT22;50063;52.084;5.414;2022-08-19T00:19:14;19.50;99.90
63897;DHT22;50063;52.084;5.414;2022-08-19T00:21:41;19.40;99.90
63897;DHT22;50063;52.084;5.414;2022-08-19T00:24:08;19.40;99.90
63897;DHT22;50063;52.084;5.414;2022-08-19T00:26:36;19.40;99.90
63897;DHT22;50063;52.084;5.414;2022-08-19T00:29:04;19.40;99.90
63897;DHT22;50063;52.084;5.414;2022-08-19T00:31:31;19.30;99.90
63897;DHT22;50063;52.084;5.414;2022-08-19T00:33:58;19.30;99.90
63897;DHT22;50063;52.084;5.414;2022-08-19T00:36:27;19.20;99.90
63897;DHT22;50063;52.084;5.414;2022-08-19T00:38:55;19.20;99.90
63897;DHT22;50063;52.084;5.414;2022-08-19T00:41:23;19.20;99.90
63897;DHT22;50063;52.084;5.414;2022-08-19T00:44:00;19.20;99.90
63897;DHT22;50063;52.084;5.414;2022-08-19T00:46:28;19.20;99.90
63897;DHT22;50063;52.084;5.414;2022-08-19T00:48:56;19.10;99.90
63897;DHT22;50063;52.084;5.414;2022-08-19T00:51:27;19.10;99.90
63897;DHT22;50063;52.084;5.414;2022-08-19T00:53:57;19.10;99.90
63897;DHT22;50063;52.084;5.414;2022-08-19T00:56:24;19.10;99.90
63897;DHT22;50063;52.084;5.414;2022-08-19T00:58:54;19.00;99.90
63897;DHT22;50063;52.084;5.414;2022-08-19T01:01:21;19.00;99.90
63897;DHT22;50063;52.084;5.414;2022-08-19T01:03:47;19.00;99.90
63897;DHT22;50063;52.084;5.414;2022-08-19T01:06:24;19.00;99.90
63897;DHT22;50063;52.084;5.414;2022-08-19T01:08:51;18.90;99.90
63897;DHT22;50063;52.084;5.414;2022-08-19T01:11:18;18.90;99.90
63897;DHT22;50063;52.084;5.414;2022-08-19T01:13:44;18.80;99.90
63897;DHT22;50063;52.084;5.414;2022-08-19T01:16:16;18.80;99.90
63897;DHT22;50063;52.084;5.414;2022-08-19T01:18:43;18.80;99.90
63897;DHT22;50063;52.084;5.414;2022-08-19T01:21:12;18.80;99.90
63897;DHT22;50063;52.084;5.414;2022-08-19T01:23:43;18.80;99.90
63897;DHT22;50063;52.084;5.414;2022-08-19T01:26:14;18.80;99.90
63897;DHT22;50063;52.084;5.414;2022-08-19T01:28:42;18.80;99.90
63897;DHT22;50063;52.084;5.414;2022-08-19T01:31:14;18.70;99.90
63897;DHT22;50063;52.084;5.414;2022-08-19T01:33:54;18.70;99.90
63897;DHT22;50063;52.084;5.414;2022-08-19T01:36:22;18.70;99.90
63897;DHT22;50063;52.084;5.414;2022-08-19T01:38:49;18.70;99.90
63897;DHT22;50063;52.084;5.414;2022-08-19T01:41:17;18.60;99.90
63897;DHT22;50063;52.084;5.414;2022-08-19T01:43:45;18.70;99.90
63897;DHT22;50063;52.084;5.414;2022-08-19T01:46:32;18.60;99.90
63897;DHT22;50063;52.084;5.414;2022-08-19T01:49:00;18.60;99.90
63897;DHT22;50063;52.084;5.414;2022-08-19T01:51:26;18.60;99.90
63897;DHT22;50063;52.084;5.414;2022-08-19T01:54:04;18.50;99.90
63897;DHT22;50063;52.084;5.414;2022-08-19T01:56:30;18.50;99.90
63897;DHT22;50063;52.084;5.414;2022-08-19T01:59:00;18.50;99.90
63897;DHT22;50063;52.084;5.414;2022-08-19T02:01:29;18.50;99.90
63897;DHT22;50063;52.084;5.414;2022-08-19T02:03:59;18.50;99.90
63897;DHT22;50063;52.084;5.414;2022-08-19T02:06:27;18.50;99.90
63897;DHT22;50063;52.084;5.414;2022-08-19T02:08:54;18.50;99.90
63897;DHT22;50063;52.084;5.414;2022-08-19T02:11:24;18.50;99.90
63897;DHT22;50063;52.084;5.414;2022-08-19T02:13:53;18.50;99.90
63897;DHT22;50063;52.084;5.414;2022-08-19T02:16:20;18.50;99.90
63897;DHT22;50063;52.084;5.414;2022-08-19T02:18:47;18.50;99.90
63897;DHT22;50063;52.084;5.414;2022-08-19T02:21:17;18.40;99.90
63897;DHT22;50063;52.084;5.414;2022-08-19T02:23:44;18.40;99.90
63897;DHT22;50063;52.084;5.414;2022-08-19T02:26:11;18.40;99.90
63897;DHT22;50063;52.084;5.414;2022-08-19T02:28:39;18.40;99.90
63897;DHT22;50063;52.084;5.414;2022-08-19T02:31:12;18.40;99.90
63897;DHT22;50063;52.084;5.414;2022-08-19T02:33:41;18.30;99.90
63897;DHT22;50063;52.084;5.414;2022-08-19T02:36:07;18.30;99.90
63897;DHT22;50063;52.084;5.414;2022-08-19T02:38:34;18.30;99.90
63897;DHT22;50063;52.084;5.414;2022-08-19T02:41:03;18.30;99.90
63897;DHT22;50063;52.084;5.414;2022-08-19T02:43:30;18.30;99.90
63897;DHT22;50063;52.084;5.414;2022-08-19T02:45:59;18.30;99.90
63897;DHT22;50063;52.084;5.414;2022-08-19T02:48:26;18.20;99.90
63897;DHT22;50063;52.084;5.414;2022-08-19T02:50:53;18.20;99.90
63897;DHT22;50063;52.084;5.414;2022-08-19T02:53:22;18.20;99.90
63897;DHT22;50063;52.084;5.414;2022-08-19T02:55:49;18.20;99.90
63897;DHT22;50063;52.084;5.414;2022-08-19T02:58:17;18.30;99.90
63897;DHT22;50063;52.084;5.414;2022-08-19T03:00:45;18.20;99.90
63897;DHT22;50063;52.084;5.414;2022-08-19T03:03:13;18.10;99.90
63897;DHT22;50063;52.084;5.414;2022-08-19T03:05:39;18.10;99.90
63897;DHT22;50063;52.084;5.414;2022-08-19T03:08:21;18.10;99.90
63897;DHT22;50063;52.084;5.414;2022-08-19T03:10:48;18.10;99.90
63897;DHT22;50063;52.084;5.414;2022-08-19T03:13:15;18.00;99.90
63897;DHT22;50063;52.084;5.414;2022-08-19T03:15:42;18.00;99.90
63897;DHT22;50063;52.084;5.414;2022-08-19T03:18:09;18.00;99.90
63897;DHT22;50063;52.084;5.414;2022-08-19T03:20:42;18.00;99.90
63897;DHT22;50063;52.084;5.414;2022-08-19T03:23:08;18.00;99.90
63897;DHT22;50063;52.084;5.414;2022-08-19T03:25:41;17.90;99.90
63897;DHT22;50063;52.084;5.414;2022-08-19T03:28:10;17.90;99.90
63897;DHT22;50063;52.084;5.414;2022-08-19T03:30:38;17.90;99.90
63897;DHT22;50063;52.084;5.414;2022-08-19T03:33:09;17.90;99.90
63897;DHT22;50063;52.084;5.414;2022-08-19T03:35:43;17.90;99.90
63897;DHT22;50063;52.084;5.414;2022-08-19T03:38:10;17.90;99.90
63897;DHT22;50063;52.084;5.414;2022-08-19T03:40:37;17.80;99.90
63897;DHT22;50063;52.084;5.414;2022-08-19T03:43:04;17.80;99.90
63897;DHT22;50063;52.084;5.414;2022-08-19T03:45:32;17.80;99.90
63897;DHT22;50063;52.084;5.414;2022-08-19T03:47:59;17.80;99.90
63897;DHT22;50063;52.084;5.414;2022-08-19T03:50:25;17.80;99.90
63897;DHT22;50063;52.084;5.414;2022-08-19T03:52:52;17.80;99.90
63897;DHT22;50063;52.084;5.414;2022-08-19T03:55:19;17.80;99.90
63897;DHT22;50063;52.084;5.414;2022-08-19T03:57:45;17.70;99.90
63897;DHT22;50063;52.084;5.414;2022-08-19T04:00:16;17.70;99.90
63897;DHT22;50063;52.084;5.414;2022-08-19T04:02:42;17.60;99.90
63897;DHT22;50063;52.084;5.414;2022-08-19T04:05:27;17.70;99.90
63897;DHT22;50063;52.084;5.414;2022-08-19T04:07:54;17.60;99.90
63897;DHT22;50063;52.084;5.414;2022-08-19T04:10:24;17.60;99.90
63897;DHT22;50063;52.084;5.414;2022-08-19T04:12:51;17.60;99.90
63897;DHT22;50063;52.084;5.414;2022-08-19T04:15:17;17.60;99.90
63897;DHT22;50063;52.084;5.414;2022-08-19T04:17:47;17.50;99.90
63897;DHT22;50063;52.084;5.414;2022-08-19T04:20:13;17.60;99.90
63897;DHT22;50063;52.084;5.414;2022-08-19T04:22:40;17.50;99.90
63897;DHT22;50063;52.084;5.414;2022-08-19T04:25:07;17.50;99.90
63897;DHT22;50063;52.084;5.414;2022-08-19T04:27:33;17.50;99.90
63897;DHT22;50063;52.084;5.414;2022-08-19T04:30:00;17.60;99.90
63897;DHT22;50063;52.084;5.414;2022-08-19T04:32:28;17.50;99.90
63897;DHT22;50063;52.084;5.414;2022-08-19T04:34:54;17.50;99.90
63897;DHT22;50063;52.084;5.414;2022-08-19T04:37:28;17.50;99.90
63897;DHT22;50063;52.084;5.414;2022-08-19T04:40:05;17.50;99.90
63897;DHT22;50063;52.084;5.414;2022-08-19T04:42:50;17.50;99.90
63897;DHT22;50063;52.084;5.414;2022-08-19T04:45:20;17.50;99.90
63897;DHT22;50063;52.084;5.414;2022-08-19T04:47:48;17.50;99.90
63897;DHT22;50063;52.084;5.414;2022-08-19T04:50:25;17.50;99.90
63897;DHT22;50063;52.084;5.414;2022-08-19T04:52:59;17.50;99.90
63897;DHT22;50063;52.084;5.414;2022-08-19T04:55:27;17.40;99.90
63897;DHT22;50063;52.084;5.414;2022-08-19T04:57:54;17.40;99.90
63897;DHT22;50063;52.084;5.414;2022-08-19T05:00:21;17.40;99.90
63897;DHT22;50063;52.084;5.414;2022-08-19T05:02:47;17.40;99.90
63897;DHT22;50063;52.084;5.414;2022-08-19T05:05:15;17.40;99.90
63897;DHT22;50063;52.084;5.414;2022-08-19T05:07:43;17.40;99.90
63897;DHT22;50063;52.084;5.414;2022-08-19T05:10:10;17.40;99.90
63897;DHT22;50063;52.084;5.414;2022-08-19T05:12:36;17.40;99.90
63897;DHT22;50063;52.084;5.414;2022-08-19T05:15:04;17.40;99.90
63897;DHT22;50063;52.084;5.414;2022-08-19T05:17:31;17.40;99.90
63897;DHT22;50063;52.084;5.414;2022-08-19T05:20:04;17.40;99.90
63897;DHT22;50063;52.084;5.414;2022-08-19T05:22:50;17.40;99.90
63897;DHT22;50063;52.084;5.414;2022-08-19T05:25:17;17.40;99.90
63897;DHT22;50063;52.084;5.414;2022-08-19T05:27:46;17.40;99.90
63897;DHT22;50063;52.084;5.414;2022-08-19T05:30:14;17.40;99.90
63897;DHT22;50063;52.084;5.414;2022-08-19T05:32:40;17.40;99.90
63897;DHT22;50063;52.084;5.414;2022-08-19T05:35:08;17.40;99.90
63897;DHT22;50063;52.084;5.414;2022-08-19T05:37:36;17.40;99.90
63897;DHT22;50063;52.084;5.414;2022-08-19T05:40:06;17.50;99.90
63897;DHT22;50063;52.084;5.414;2022-08-19T05:42:33;17.50;99.90
63897;DHT22;50063;52.084;5.414;2022-08-19T05:45:00;17.50;99.90
63897;DHT22;50063;52.084;5.414;2022-08-19T05:47:27;17.50;99.90
63897;DHT22;50063;52.084;5.414;2022-08-19T05:49:54;17.60;99.90
63897;DHT22;50063;52.084;5.414;2022-08-19T05:52:20;17.60;99.90
63897;DHT22;50063;52.084;5.414;2022-08-19T05:54:51;17.70;99.90
63897;DHT22;50063;52.084;5.414;2022-08-19T05:57:18;17.80;99.90
63897;DHT22;50063;52.084;5.414;2022-08-19T05:59:45;17.80;99.90
63897;DHT22;50063;52.084;5.414;2022-08-19T06:02:25;17.90;99.90
63897;DHT22;50063;52.084;5.414;2022-08-19T06:04:51;18.00;99.90
63897;DHT22;50063;52.084;5.414;2022-08-19T06:07:18;18.00;99.90
63897;DHT22;50063;52.084;5.414;2022-08-19T06:09:45;18.10;99.90
63897;DHT22;50063;52.084;5.414;2022-08-19T06:12:27;18.20;99.90
63897;DHT22;50063;52.084;5.414;2022-08-19T06:14:58;18.30;99.90
63897;DHT22;50063;52.084;5.414;2022-08-19T06:17:27;18.40;99.90
63897;DHT22;50063;52.084;5.414;2022-08-19T06:19:56;18.40;99.90
63897;DHT22;50063;52.084;5.414;2022-08-19T06:22:24;18.60;99.90
63897;DHT22;50063;52.084;5.414;2022-08-19T06:24:51;18.70;99.90
63897;DHT22;50063;52.084;5.414;2022-08-19T06:27:20;18.80;99.90
63897;DHT22;50063;52.084;5.414;2022-08-19T06:29:48;18.80;99.90
63897;DHT22;50063;52.084;5.414;2022-08-19T06:32:15;18.90;99.90
63897;DHT22;50063;52.084;5.414;2022-08-19T06:34:42;19.00;99.90
63897;DHT22;50063;52.084;5.414;2022-08-19T06:37:11;19.10;99.90
63897;DHT22;50063;52.084;5.414;2022-08-19T06:39:39;19.20;99.90
63897;DHT22;50063;52.084;5.414;2022-08-19T06:42:06;19.30;99.90
63897;DHT22;50063;52.084;5.414;2022-08-19T06:44:36;19.30;99.90
63897;DHT22;50063;52.084;5.414;2022-08-19T06:47:10;19.30;99.90
63897;DHT22;50063;52.084;5.414;2022-08-19T06:49:48;19.30;99.90
63897;DHT22;50063;52.084;5.414;2022-08-19T06:52:15;19.50;99.90
63897;DHT22;50063;52.084;5.414;2022-08-19T06:54:42;19.70;99.90
63897;DHT22;50063;52.084;5.414;2022-08-19T06:57:21;19.80;99.90
63897;DHT22;50063;52.084;5.414;2022-08-19T06:59:48;19.80;99.90
63897;DHT22;50063;52.084;5.414;2022-08-19T07:02:19;19.70;99.90
63897;DHT22;50063;52.084;5.414;2022-08-19T07:04:47;19.70;99.90
63897;DHT22;50063;52.084;5.414;2022-08-19T07:07:18;19.90;99.90
63897;DHT22;50063;52.084;5.414;2022-08-19T07:09:47;19.90;99.90
63897;DHT22;50063;52.084;5.414;2022-08-19T07:12:24;19.80;99.90
63897;DHT22;50063;52.084;5.414;2022-08-19T07:14:53;19.90;99.90
63897;DHT22;50063;52.084;5.414;2022-08-19T07:17:23;20.00;99.90
63897;DHT22;50063;52.084;5.414;2022-08-19T07:19:50;20.10;99.90
63897;DHT22;50063;52.084;5.414;2022-08-19T07:22:20;20.20;99.90
63897;DHT22;50063;52.084;5.414;2022-08-19T07:24:50;20.30;99.90
63897;DHT22;50063;52.084;5.414;2022-08-19T07:27:17;20.40;99.90
63897;DHT22;50063;52.084;5.414;2022-08-19T07:29:50;20.50;99.90
63897;DHT22;50063;52.084;5.414;2022-08-19T07:32:21;20.40;99.90
63897;DHT22;50063;52.084;5.414;2022-08-19T07:34:48;20.30;99.90
63897;DHT22;50063;52.084;5.414;2022-08-19T07:37:15;20.30;99.90
63897;DHT22;50063;52.084;5.414;2022-08-19T07:39:42;20.30;99.90
63897;DHT22;50063;52.084;5.414;2022-08-19T07:42:09;20.40;99.90
63897;DHT22;50063;52.084;5.414;2022-08-19T07:44:39;20.30;99.90
63897;DHT22;50063;52.084;5.414;2022-08-19T07:47:11;20.40;99.90
63897;DHT22;50063;52.084;5.414;2022-08-19T07:50:02;20.50;99.90
63897;DHT22;50063;52.084;5.414;2022-08-19T07:52:33;20.30;99.90
63897;DHT22;50063;52.084;5.414;2022-08-19T07:55:00;20.40;99.90
63897;DHT22;50063;52.084;5.414;2022-08-19T07:57:29;20.40;99.90
63897;DHT22;50063;52.084;5.414;2022-08-19T07:59:56;20.50;99.90
63897;DHT22;50063;52.084;5.414;2022-08-19T08:02:23;20.40;99.90
63897;DHT22;50063;52.084;5.414;2022-08-19T08:04:49;20.40;99.90
63897;DHT22;50063;52.084;5.414;2022-08-19T08:07:35;20.40;99.90
63897;DHT22;50063;52.084;5.414;2022-08-19T08:10:21;20.60;99.90
63897;DHT22;50063;52.084;5.414;2022-08-19T08:12:50;20.50;99.90
63897;DHT22;50063;52.084;5.414;2022-08-19T08:15:36;20.60;99.90
63897;DHT22;50063;52.084;5.414;2022-08-19T08:18:09;20.70;99.90
63897;DHT22;50063;52.084;5.414;2022-08-19T08:20:35;20.70;99.90
63897;DHT22;50063;52.084;5.414;2022-08-19T08:23:02;20.70;99.90
63897;DHT22;50063;52.084;5.414;2022-08-19T08:25:57;20.80;99.90
63897;DHT22;50063;52.084;5.414;2022-08-19T08:28:25;21.00;99.90
63897;DHT22;50063;52.084;5.414;2022-08-19T08:30:55;20.90;99.90
63897;DHT22;50063;52.084;5.414;2022-08-19T08:33:23;21.10;99.90
63897;DHT22;50063;52.084;5.414;2022-08-19T08:36:00;21.30;99.90
63897;DHT22;50063;52.084;5.414;2022-08-19T08:38:29;21.30;99.90
63897;DHT22;50063;52.084;5.414;2022-08-19T08:41:06;21.40;99.90
63897;DHT22;50063;52.084;5.414;2022-08-19T08:43:37;21.20;99.90
63897;DHT22;50063;52.084;5.414;2022-08-19T08:46:09;21.00;99.90
63897;DHT22;50063;52.084;5.414;2022-08-19T08:48:58;21.10;99.90
63897;DHT22;50063;52.084;5.414;2022-08-19T08:51:28;21.30;99.90
63897;DHT22;50063;52.084;5.414;2022-08-19T08:54:02;21.40;99.90
63897;DHT22;50063;52.084;5.414;2022-08-19T08:56:30;21.40;99.90
63897;DHT22;50063;52.084;5.414;2022-08-19T09:01:43;21.80;99.90
63897;DHT22;50063;52.084;5.414;2022-08-19T09:04:10;22.00;99.90
63897;DHT22;50063;52.084;5.414;2022-08-19T09:09:30;22.10;99.90
63897;DHT22;50063;52.084;5.414;2022-08-19T09:14:53;22.60;99.90
63897;DHT22;50063;52.084;5.414;2022-08-19T09:17:26;22.80;99.90
63897;DHT22;50063;52.084;5.414;2022-08-19T09:22:39;23.10;99.90
63897;DHT22;50063;52.084;5.414;2022-08-19T09:25:08;23.00;99.90
63897;DHT22;50063;52.084;5.414;2022-08-19T09:27:35;23.30;99.90
63897;DHT22;50063;52.084;5.414;2022-08-19T09:30:16;23.50;99.90
63897;DHT22;50063;52.084;5.414;2022-08-19T09:32:44;23.70;99.90
63897;DHT22;50063;52.084;5.414;2022-08-19T09:35:12;23.80;99.90
63897;DHT22;50063;52.084;5.414;2022-08-19T09:37:39;23.90;99.90
63897;DHT22;50063;52.084;5.414;2022-08-19T09:40:06;24.00;99.90
63897;DHT22;50063;52.084;5.414;2022-08-19T09:42:34;24.00;99.90
63897;DHT22;50063;52.084;5.414;2022-08-19T09:45:01;23.70;99.90
63897;DHT22;50063;52.084;5.414;2022-08-19T09:47:30;23.70;99.90
63897;DHT22;50063;52.084;5.414;2022-08-19T09:49:58;23.60;99.90
63897;DHT22;50063;52.084;5.414;2022-08-19T09:52:25;23.10;99.90
63897;DHT22;50063;52.084;5.414;2022-08-19T09:54:58;23.30;99.90
63897;DHT22;50063;52.084;5.414;2022-08-19T09:57:25;23.50;99.90
63897;DHT22;50063;52.084;5.414;2022-08-19T09:59:51;23.20;99.90
63897;DHT22;50063;52.084;5.414;2022-08-19T10:02:19;23.20;99.90
63897;DHT22;50063;52.084;5.414;2022-08-19T10:04:47;23.00;99.90
63897;DHT22;50063;52.084;5.414;2022-08-19T10:07:33;22.90;99.90
63897;DHT22;50063;52.084;5.414;2022-08-19T10:10:03;23.10;99.90
63897;DHT22;50063;52.084;5.414;2022-08-19T10:12:30;23.10;99.90
63897;DHT22;50063;52.084;5.414;2022-08-19T10:14:56;23.40;99.90
63897;DHT22;50063;52.084;5.414;2022-08-19T10:17:23;23.40;99.90
63897;DHT22;50063;52.084;5.414;2022-08-19T10:19:57;23.30;99.90
63897;DHT22;50063;52.084;5.414;2022-08-19T10:22:23;23.10;99.90
63897;DHT22;50063;52.084;5.414;2022-08-19T10:24:51;23.40;99.90
63897;DHT22;50063;52.084;5.414;2022-08-19T10:27:18;23.50;99.90
63897;DHT22;50063;52.084;5.414;2022-08-19T10:29:45;23.80;99.90
63897;DHT22;50063;52.084;5.414;2022-08-19T10:32:13;24.10;99.90
63897;DHT22;50063;52.084;5.414;2022-08-19T10:34:41;24.30;99.90
63897;DHT22;50063;52.084;5.414;2022-08-19T10:37:15;24.50;99.90
63897;DHT22;50063;52.084;5.414;2022-08-19T10:39:54;24.70;99.90
63897;DHT22;50063;52.084;5.414;2022-08-19T10:42:21;24.90;99.90
63897;DHT22;50063;52.084;5.414;2022-08-19T10:44:47;25.10;99.90
63897;DHT22;50063;52.084;5.414;2022-08-19T10:47:17;25.10;99.90
63897;DHT22;50063;52.084;5.414;2022-08-19T10:49:52;25.10;99.90
63897;DHT22;50063;52.084;5.414;2022-08-19T10:52:44;25.30;99.90
63897;DHT22;50063;52.084;5.414;2022-08-19T10:55:16;25.30;99.90
63897;DHT22;50063;52.084;5.414;2022-08-19T10:58:02;25.20;99.90
63897;DHT22;50063;52.084;5.414;2022-08-19T11:00:28;25.20;99.90
63897;DHT22;50063;52.084;5.414;2022-08-19T11:02:57;25.10;99.90
63897;DHT22;50063;52.084;5.414;2022-08-19T11:05:23;24.90;99.90
63897;DHT22;50063;52.084;5.414;2022-08-19T11:07:50;25.10;99.90
63897;DHT22;50063;52.084;5.414;2022-08-19T11:10:18;25.10;99.90
63897;DHT22;50063;52.084;5.414;2022-08-19T11:12:47;25.20;99.90
63897;DHT22;50063;52.084;5.414;2022-08-19T11:15:14;25.30;99.90
63897;DHT22;50063;52.084;5.414;2022-08-19T11:17:41;25.50;99.90
63897;DHT22;50063;52.084;5.414;2022-08-19T11:20:13;25.20;99.90
63897;DHT22;50063;52.084;5.414;2022-08-19T11:22:40;25.30;99.90
63897;DHT22;50063;52.084;5.414;2022-08-19T11:25:10;25.50;99.90
63897;DHT22;50063;52.084;5.414;2022-08-19T11:27:38;25.40;99.90
63897;DHT22;50063;52.084;5.414;2022-08-19T11:30:05;25.50;99.90
63897;DHT22;50063;52.084;5.414;2022-08-19T11:32:38;25.50;99.90
63897;DHT22;50063;52.084;5.414;2022-08-19T11:35:04;25.10;99.90
63897;DHT22;50063;52.084;5.414;2022-08-19T11:37:31;25.30;99.90
63897;DHT22;50063;52.084;5.414;2022-08-19T11:40:05;25.40;99.90
63897;DHT22;50063;52.084;5.414;2022-08-19T11:42:31;25.50;99.90
63897;DHT22;50063;52.084;5.414;2022-08-19T11:45:17;25.50;99.90
63897;DHT22;50063;52.084;5.414;2022-08-19T11:47:44;25.60;99.90
63897;DHT22;50063;52.084;5.414;2022-08-19T11:50:10;25.70;99.90
63897;DHT22;50063;52.084;5.414;2022-08-19T11:52:37;25.60;99.90
63897;DHT22;50063;52.084;5.414;2022-08-19T11:55:04;25.80;99.90
63897;DHT22;50063;52.084;5.414;2022-08-19T11:57:31;26.00;99.90
63897;DHT22;50063;52.084;5.414;2022-08-19T11:59:57;26.10;99.90
63897;DHT22;50063;52.084;5.414;2022-08-19T12:02:24;26.30;99.90
63897;DHT22;50063;52.084;5.414;2022-08-19T12:04:51;26.30;99.90
63897;DHT22;50063;52.084;5.414;2022-08-19T12:07:18;26.40;99.90
63897;DHT22;50063;52.084;5.414;2022-08-19T12:09:44;26.30;99.90
63897;DHT22;50063;52.084;5.414;2022-08-19T12:12:14;26.40;99.90
63897;DHT22;50063;52.084;5.414;2022-08-19T12:14:40;26.60;99.90
63897;DHT22;50063;52.084;5.414;2022-08-19T12:17:07;26.30;99.90
63897;DHT22;50063;52.084;5.414;2022-08-19T12:19:36;26.40;99.90
63897;DHT22;50063;52.084;5.414;2022-08-19T12:22:02;26.30;99.90
63897;DHT22;50063;52.084;5.414;2022-08-19T12:24:30;26.20;99.90
63897;DHT22;50063;52.084;5.414;2022-08-19T12:26:58;25.90;99.90
63897;DHT22;50063;52.084;5.414;2022-08-19T12:29:28;25.80;99.90
63897;DHT22;50063;52.084;5.414;2022-08-19T12:31:56;25.60;99.90
63897;DHT22;50063;52.084;5.414;2022-08-19T12:34:30;25.50;99.90
63897;DHT22;50063;52.084;5.414;2022-08-19T12:36:57;25.60;99.90
63897;DHT22;50063;52.084;5.414;2022-08-19T12:39:25;25.50;99.90
63897;DHT22;50063;52.084;5.414;2022-08-19T12:41:52;25.50;99.90
63897;DHT22;50063;52.084;5.414;2022-08-19T12:44:21;25.50;99.90
63897;DHT22;50063;52.084;5.414;2022-08-19T12:46:54;25.70;99.90
63897;DHT22;50063;52.084;5.414;2022-08-19T12:49:20;25.70;99.90
63897;DHT22;50063;52.084;5.414;2022-08-19T12:52:07;25.70;99.90
63897;DHT22;50063;52.084;5.414;2022-08-19T12:54:35;25.70;99.90
63897;DHT22;50063;52.084;5.414;2022-08-19T12:57:06;25.70;99.90
63897;DHT22;50063;52.084;5.414;2022-08-19T12:59:37;25.60;99.90
63897;DHT22;50063;52.084;5.414;2022-08-19T13:02:04;26.00;99.90
63897;DHT22;50063;52.084;5.414;2022-08-19T13:04:32;26.10;99.90
63897;DHT22;50063;52.084;5.414;2022-08-19T13:07:02;26.20;99.90
63897;DHT22;50063;52.084;5.414;2022-08-19T13:09:29;26.10;99.90
63897;DHT22;50063;52.084;5.414;2022-08-19T13:11:55;26.00;99.90
63897;DHT22;50063;52.084;5.414;2022-08-19T13:14:23;26.20;99.90
63897;DHT22;50063;52.084;5.414;2022-08-19T13:16:52;26.20;99.90
63897;DHT22;50063;52.084;5.414;2022-08-19T13:19:18;26.10;99.90
63897;DHT22;50063;52.084;5.414;2022-08-19T13:21:49;26.20;99.90
63897;DHT22;50063;52.084;5.414;2022-08-19T13:24:15;26.00;99.90
63897;DHT22;50063;52.084;5.414;2022-08-19T13:26:42;26.10;99.90
63897;DHT22;50063;52.084;5.414;2022-08-19T13:29:09;25.90;99.90
63897;DHT22;50063;52.084;5.414;2022-08-19T13:31:54;26.00;99.90
63897;DHT22;50063;52.084;5.414;2022-08-19T13:34:44;26.10;99.90
63897;DHT22;50063;52.084;5.414;2022-08-19T13:37:12;25.90;99.90
63897;DHT22;50063;52.084;5.414;2022-08-19T13:39:39;25.70;99.90
63897;DHT22;50063;52.084;5.414;2022-08-19T13:42:06;25.60;99.90
63897;DHT22;50063;52.084;5.414;2022-08-19T13:44:33;25.60;99.90
63897;DHT22;50063;52.084;5.414;2022-08-19T13:47:01;25.20;99.90
63897;DHT22;50063;52.084;5.414;2022-08-19T13:49:32;25.10;99.90
63897;DHT22;50063;52.084;5.414;2022-08-19T13:51:59;24.90;99.90
63897;DHT22;50063;52.084;5.414;2022-08-19T13:54:25;24.30;99.90
63897;DHT22;50063;52.084;5.414;2022-08-19T13:56:53;24.20;99.90
63897;DHT22;50063;52.084;5.414;2022-08-19T13:59:19;23.80;99.90
63897;DHT22;50063;52.084;5.414;2022-08-19T14:01:46;23.00;99.90
63897;DHT22;50063;52.084;5.414;2022-08-19T14:04:12;23.30;99.90
63897;DHT22;50063;52.084;5.414;2022-08-19T14:06:39;23.30;99.90
63897;DHT22;50063;52.084;5.414;2022-08-19T14:09:06;23.20;99.90
63897;DHT22;50063;52.084;5.414;2022-08-19T14:11:33;23.20;99.90
63897;DHT22;50063;52.084;5.414;2022-08-19T14:14:00;23.20;99.90
63897;DHT22;50063;52.084;5.414;2022-08-19T14:16:26;22.80;99.90
63897;DHT22;50063;52.084;5.414;2022-08-19T14:18:53;22.70;99.90
63897;DHT22;50063;52.084;5.414;2022-08-19T14:21:21;22.70;99.90
63897;DHT22;50063;52.084;5.414;2022-08-19T14:23:49;22.60;99.90
63897;DHT22;50063;52.084;5.414;2022-08-19T14:26:16;22.60;99.90
63897;DHT22;50063;52.084;5.414;2022-08-19T14:28:43;22.50;99.90
63897;DHT22;50063;52.084;5.414;2022-08-19T14:31:10;22.60;99.90
63897;DHT22;50063;52.084;5.414;2022-08-19T14:33:37;22.50;99.90
63897;DHT22;50063;52.084;5.414;2022-08-19T14:36:04;22.50;99.90
63897;DHT22;50063;52.084;5.414;2022-08-19T14:38:31;22.60;99.90
63897;DHT22;50063;52.084;5.414;2022-08-19T14:41:07;22.60;99.90
63897;DHT22;50063;52.084;5.414;2022-08-19T14:43:34;22.60;99.90
63897;DHT22;50063;52.084;5.414;2022-08-19T14:46:01;22.70;99.90
63897;DHT22;50063;52.084;5.414;2022-08-19T14:48:28;22.70;99.90
63897;DHT22;50063;52.084;5.414;2022-08-19T14:50:54;22.90;99.90
63897;DHT22;50063;52.084;5.414;2022-08-19T14:53:21;22.90;99.90
63897;DHT22;50063;52.084;5.414;2022-08-19T14:55:47;23.10;99.90
63897;DHT22;50063;52.084;5.414;2022-08-19T14:58:15;23.00;99.90
63897;DHT22;50063;52.084;5.414;2022-08-19T15:00:56;23.20;99.90
63897;DHT22;50063;52.084;5.414;2022-08-19T15:03:23;23.40;99.90
63897;DHT22;50063;52.084;5.414;2022-08-19T15:05:50;23.50;99.90
63897;DHT22;50063;52.084;5.414;2022-08-19T15:08:16;23.60;99.90
63897;DHT22;50063;52.084;5.414;2022-08-19T15:10:43;23.50;99.90
63897;DHT22;50063;52.084;5.414;2022-08-19T15:13:09;23.50;99.90
63897;DHT22;50063;52.084;5.414;2022-08-19T15:15:36;23.70;99.90
63897;DHT22;50063;52.084;5.414;2022-08-19T15:18:04;23.70;99.90
63897;DHT22;50063;52.084;5.414;2022-08-19T15:20:30;24.00;99.90
63897;DHT22;50063;52.084;5.414;2022-08-19T15:22:57;24.30;99.90
63897;DHT22;50063;52.084;5.414;2022-08-19T15:25:25;25.20;99.90
63897;DHT22;50063;52.084;5.414;2022-08-19T15:27:52;25.10;99.90
63897;DHT22;50063;52.084;5.414;2022-08-19T15:30:21;25.70;99.90
63897;DHT22;50063;52.084;5.414;2022-08-19T15:32:48;26.40;99.90
63897;DHT22;50063;52.084;5.414;2022-08-19T15:35:15;26.50;99.90
63897;DHT22;50063;52.084;5.414;2022-08-19T15:37:41;26.80;99.90
63897;DHT22;50063;52.084;5.414;2022-08-19T15:40:08;27.00;99.90
63897;DHT22;50063;52.084;5.414;2022-08-19T15:42:35;28.10;99.90
63897;DHT22;50063;52.084;5.414;2022-08-19T15:45:03;28.70;99.90
63897;DHT22;50063;52.084;5.414;2022-08-19T15:47:30;28.30;99.90
63897;DHT22;50063;52.084;5.414;2022-08-19T15:50:07;27.80;99.90
63897;DHT22;50063;52.084;5.414;2022-08-19T15:52:37;27.80;99.90
63897;DHT22;50063;52.084;5.414;2022-08-19T15:55:19;27.70;99.90